sensor_id;sensor_type;location;lat;lon;timestamp;temperature;humidity
45115;DHT22;30877;43.706;10.780;2024-03-17T00:00:13;12.60;96.70
45115;DHT22;30877;43.706;10.780;2024-03-17T00:02:42;12.60;96.70
45115;DHT22;30877;43.706;10.780;2024-03-17T00:05:09;12.60;96.70
45115;DHT22;30877;43.706;10.780;2024-03-17T00:07:39;12.60;96.70
45115;DHT22;30877;43.706;10.780;2024-03-17T00:10:09;12.60;96.70
45115;DHT22;30877;43.706;10.780;2024-03-17T00:12:38;12.60;96.70
45115;DHT22;30877;43.706;10.780;2024-03-17T00:15:13;12.60;96.70
45115;DHT22;30877;43.706;10.780;2024-03-17T00:17:41;12.50;96.70
45115;DHT22;30877;43.706;10.780;2024-03-17T00:20:10;12.50;96.70
45115;DHT22;30877;43.706;10.780;2024-03-17T00:22:47;12.50;96.70
45115;DHT22;30877;43.706;10.780;2024-03-17T00:25:14;12.50;96.70
45115;DHT22;30877;43.706;10.780;2024-03-17T00:27:42;12.40;96.70
45115;DHT22;30877;43.706;10.780;2024-03-17T00:30:13;12.40;96.70
45115;DHT22;30877;43.706;10.780;2024-03-17T00:32:42;12.40;96.70
45115;DHT22;30877;43.706;10.780;2024-03-17T00:35:11;12.40;96.70
45115;DHT22;30877;43.706;10.780;2024-03-17T00:37:41;12.40;96.70
45115;DHT22;30877;43.706;10.780;2024-03-17T00:40:09;12.30;96.70
45115;DHT22;30877;43.706;10.780;2024-03-17T00:42:38;12.20;96.70
45115;DHT22;30877;43.706;10.780;2024-03-17T00:45:10;12.20;96.70
45115;DHT22;30877;43.706;10.780;2024-03-17T00:47:39;12.20;96.70
45115;DHT22;30877;43.706;10.780;2024-03-17T00:50:07;12.20;96.70
45115;DHT22;30877;43.706;10.780;2024-03-17T00:52:36;12.20;96.70
45115;DHT22;30877;43.706;10.780;2024-03-17T00:55:03;12.20;96.70
45115;DHT22;30877;43.706;10.780;2024-03-17T00:57:30;12.20;96.70
45115;DHT22;30877;43.706;10.780;2024-03-17T00:59:58;12.20;96.70
45115;DHT22;30877;43.706;10.780;2024-03-17T01:02:25;12.20;96.70
45115;DHT22;30877;43.706;10.780;2024-03-17T01:04:54;12.20;96.70
45115;DHT22;30877;43.706;10.780;2024-03-17T01:07:21;12.20;96.70
45115;DHT22;30877;43.706;10.780;2024-03-17T01:09:49;12.20;96.70
45115;DHT22;30877;43.706;10.780;2024-03-17T01:12:16;12.20;96.70
45115;DHT22;30877;43.706;10.780;2024-03-17T01:14:44;12.20;96.70
45115;DHT22;30877;43.706;10.780;2024-03-17T01:17:11;12.20;96.70
45115;DHT22;30877;43.706;10.780;2024-03-17T01:19:38;12.20;96.70
45115;DHT22;30877;43.706;10.780;2024-03-17T01:22:08;12.10;96.70
45115;DHT22;30877;43.706;10.780;2024-03-17T01:24:36;12.00;96.70
45115;DHT22;30877;43.706;10.780;2024-03-17T01:27:04;12.00;96.70
45115;DHT22;30877;43.706;10.780;2024-03-17T01:29:32;12.00;96.70
45115;DHT22;30877;43.706;10.780;2024-03-17T01:32:00;12.00;96.70
45115;DHT22;30877;43.706;10.780;2024-03-17T01:34:28;12.00;96.70
45115;DHT22;30877;43.706;10.780;2024-03-17T01:36:55;12.00;96.70
45115;DHT22;30877;43.706;10.780;2024-03-17T01:39:24;12.00;96.70
45115;DHT22;30877;43.706;10.780;2024-03-17T01:41:52;12.10;96.70
45115;DHT22;30877;43.706;10.780;2024-03-17T01:44:26;12.10;96.70
45115;DHT22;30877;43.706;10.780;2024-03-17T01:46:54;12.10;96.70
45115;DHT22;30877;43.706;10.780;2024-03-17T01:49:23;12.00;96.70
45115;DHT22;30877;43.706;10.780;2024-03-17T01:51:50;12.00;96.70
45115;DHT22;30877;43.706;10.780;2024-03-17T01:54:19;12.10;96.70
45115;DHT22;30877;43.706;10.780;2024-03-17T01:56:49;12.10;96.70
45115;DHT22;30877;43.706;10.780;2024-03-17T01:59:17;12.20;96.70
45115;DHT22;30877;43.706;10.780;2024-03-17T02:01:44;12.20;96.70
45115;DHT22;30877;43.706;10.780;2024-03-17T02:04:11;12.20;96.70
45115;DHT22;30877;43.706;10.780;2024-03-17T02:06:43;12.20;96.70
45115;DHT22;30877;43.706;10.780;2024-03-17T02:09:10;12.20;96.70
45115;DHT22;30877;43.706;10.780;2024-03-17T02:11:38;12.30;96.70
45115;DHT22;30877;43.706;10.780;2024-03-17T02:14:07;12.20;96.70
45115;DHT22;30877;43.706;10.780;2024-03-17T02:16:35;12.20;96.70
45115;DHT22;30877;43.706;10.780;2024-03-17T02:19:02;12.10;96.70
45115;DHT22;30877;43.706;10.780;2024-03-17T02:21:30;12.10;96.70
45115;DHT22;30877;43.706;10.780;2024-03-17T02:24:00;12.20;96.70
45115;DHT22;30877;43.706;10.780;2024-03-17T02:26:28;12.10;96.70
45115;DHT22;30877;43.706;10.780;2024-03-17T02:28:57;12.10;96.70
45115;DHT22;30877;43.706;10.780;2024-03-17T02:31:25;12.10;96.70
45115;DHT22;30877;43.706;10.780;2024-03-17T02:33:53;12.10;96.70
45115;DHT22;30877;43.706;10.780;2024-03-17T02:36:20;12.00;96.70
45115;DHT22;30877;43.706;10.780;2024-03-17T02:38:48;12.00;96.70
45115;DHT22;30877;43.706;10.780;2024-03-17T02:41:36;12.10;96.70
45115;DHT22;30877;43.706;10.780;2024-03-17T02:44:04;12.00;96.70
45115;DHT22;30877;43.706;10.780;2024-03-17T02:46:33;12.00;96.70
45115;DHT22;30877;43.706;10.780;2024-03-17T02:49:03;12.00;96.70
45115;DHT22;30877;43.706;10.780;2024-03-17T02:51:31;11.90;96.70
45115;DHT22;30877;43.706;10.780;2024-03-17T02:53:58;11.90;96.70
45115;DHT22;30877;43.706;10.780;2024-03-17T02:56:27;11.90;96.70
45115;DHT22;30877;43.706;10.780;2024-03-17T02:58:57;11.90;96.70
45115;DHT22;30877;43.706;10.780;2024-03-17T03:01:25;11.90;96.70
45115;DHT22;30877;43.706;10.780;2024-03-17T03:03:52;11.90;96.70
45115;DHT22;30877;43.706;10.780;2024-03-17T03:06:20;11.90;96.70
45115;DHT22;30877;43.706;10.780;2024-03-17T03:08:47;11.90;96.70
45115;DHT22;30877;43.706;10.780;2024-03-17T03:11:18;12.00;96.70
45115;DHT22;30877;43.706;10.780;2024-03-17T03:13:45;12.00;96.70
45115;DHT22;30877;43.706;10.780;2024-03-17T03:16:19;12.10;96.70
45115;DHT22;30877;43.706;10.780;2024-03-17T03:18:47;12.10;96.70
45115;DHT22;30877;43.706;10.780;2024-03-17T03:21:15;12.10;96.70
45115;DHT22;30877;43.706;10.780;2024-03-17T03:23:45;12.10;96.70
45115;DHT22;30877;43.706;10.780;2024-03-17T03:26:13;12.10;96.70
45115;DHT22;30877;43.706;10.780;2024-03-17T03:28:41;12.10;96.70
45115;DHT22;30877;43.706;10.780;2024-03-17T03:31:11;12.10;96.70
45115;DHT22;30877;43.706;10.780;2024-03-17T03:33:41;12.20;96.70
45115;DHT22;30877;43.706;10.780;2024-03-17T03:36:11;12.20;96.70
45115;DHT22;30877;43.706;10.780;2024-03-17T03:38:39;12.20;96.70
45115;DHT22;30877;43.706;10.780;2024-03-17T03:41:09;12.20;96.70
45115;DHT22;30877;43.706;10.780;2024-03-17T03:43:37;12.20;96.70
45115;DHT22;30877;43.706;10.780;2024-03-17T03:46:05;12.30;96.70
45115;DHT22;30877;43.706;10.780;2024-03-17T03:48:34;12.20;96.70
45115;DHT22;30877;43.706;10.780;2024-03-17T03:51:05;12.20;96.70
45115;DHT22;30877;43.706;10.780;2024-03-17T03:53:33;12.20;96.70
45115;DHT22;30877;43.706;10.780;2024-03-17T03:56:03;12.20;96.70
45115;DHT22;30877;43.706;10.780;2024-03-17T03:58:35;12.30;96.70
45115;DHT22;30877;43.706;10.780;2024-03-17T04:01:04;12.30;96.70
45115;DHT22;30877;43.706;10.780;2024-03-17T04:03:32;12.30;96.70
45115;DHT22;30877;43.706;10.780;2024-03-17T04:06:07;12.30;96.70
45115;DHT22;30877;43.706;10.780;2024-03-17T04:08:37;12.20;96.70
45115;DHT22;30877;43.706;10.780;2024-03-17T04:11:09;12.20;96.70
45115;DHT22;30877;43.706;10.780;2024-03-17T04:13:36;12.20;96.70
45115;DHT22;30877;43.706;10.780;2024-03-17T04:16:05;12.10;96.70
45115;DHT22;30877;43.706;10.780;2024-03-17T04:18:33;12.10;96.70
45115;DHT22;30877;43.706;10.780;2024-03-17T04:21:03;12.10;96.70
45115;DHT22;30877;43.706;10.780;2024-03-17T04:23:32;12.00;96.70
45115;DHT22;30877;43.706;10.780;2024-03-17T04:26:02;12.10;96.70
45115;DHT22;30877;43.706;10.780;2024-03-17T04:28:30;12.00;96.70
45115;DHT22;30877;43.706;10.780;2024-03-17T04:31:04;12.10;96.70
45115;DHT22;30877;43.706;10.780;2024-03-17T04:33:32;12.00;96.70
45115;DHT22;30877;43.706;10.780;2024-03-17T04:36:01;12.00;96.70
45115;DHT22;30877;43.706;10.780;2024-03-17T04:38:33;12.00;96.70
45115;DHT22;30877;43.706;10.780;2024-03-17T04:41:01;12.10;96.70
45115;DHT22;30877;43.706;10.780;2024-03-17T04:43:32;12.00;96.70
45115;DHT22;30877;43.706;10.780;2024-03-17T04:46:02;12.00;96.70
45115;DHT22;30877;43.706;10.780;2024-03-17T04:48:31;12.00;96.70
45115;DHT22;30877;43.706;10.780;2024-03-17T04:50:59;12.00;96.70
45115;DHT22;30877;43.706;10.780;2024-03-17T04:53:27;12.00;96.70
45115;DHT22;30877;43.706;10.780;2024-03-17T04:56:12;12.10;96.70
45115;DHT22;30877;43.706;10.780;2024-03-17T04:58:41;12.10;96.70
45115;DHT22;30877;43.706;10.780;2024-03-17T05:01:10;12.10;96.70
45115;DHT22;30877;43.706;10.780;2024-03-17T05:03:37;12.00;96.70
45115;DHT22;30877;43.706;10.780;2024-03-17T05:06:07;12.00;96.70
45115;DHT22;30877;43.706;10.780;2024-03-17T05:08:35;12.00;96.70
45115;DHT22;30877;43.706;10.780;2024-03-17T05:11:05;12.00;96.70
45115;DHT22;30877;43.706;10.780;2024-03-17T05:13:33;12.00;96.70
45115;DHT22;30877;43.706;10.780;2024-03-17T05:16:01;12.00;96.70
45115;DHT22;30877;43.706;10.780;2024-03-17T05:18:31;12.10;96.70
45115;DHT22;30877;43.706;10.780;2024-03-17T05:21:03;12.20;96.70
45115;DHT22;30877;43.706;10.780;2024-03-17T05:23:33;12.20;96.70
45115;DHT22;30877;43.706;10.780;2024-03-17T05:26:03;12.10;96.70
45115;DHT22;30877;43.706;10.780;2024-03-17T05:28:31;12.10;96.70
45115;DHT22;30877;43.706;10.780;2024-03-17T05:30:59;12.10;96.70
45115;DHT22;30877;43.706;10.780;2024-03-17T05:33:29;12.10;96.70
45115;DHT22;30877;43.706;10.780;2024-03-17T05:35:58;12.10;96.70
45115;DHT22;30877;43.706;10.780;2024-03-17T05:38:26;12.10;96.70
45115;DHT22;30877;43.706;10.780;2024-03-17T05:40:55;12.10;96.70
45115;DHT22;30877;43.706;10.780;2024-03-17T05:43:24;12.10;96.70
45115;DHT22;30877;43.706;10.780;2024-03-17T05:45:52;12.10;96.70
45115;DHT22;30877;43.706;10.780;2024-03-17T05:48:21;12.10;96.70
45115;DHT22;30877;43.706;10.780;2024-03-17T05:50:48;12.10;96.70
45115;DHT22;30877;43.706;10.780;2024-03-17T05:53:15;12.10;96.70
45115;DHT22;30877;43.706;10.780;2024-03-17T05:55:43;12.20;96.70
45115;DHT22;30877;43.706;10.780;2024-03-17T05:58:11;12.20;96.70
45115;DHT22;30877;43.706;10.780;2024-03-17T06:00:42;12.20;96.70
45115;DHT22;30877;43.706;10.780;2024-03-17T06:03:11;12.20;96.70
45115;DHT22;30877;43.706;10.780;2024-03-17T06:05:39;12.20;96.70
45115;DHT22;30877;43.706;10.780;2024-03-17T06:08:13;12.20;96.70
45115;DHT22;30877;43.706;10.780;2024-03-17T06:10:44;12.30;96.70
45115;DHT22;30877;43.706;10.780;2024-03-17T06:13:12;12.40;96.70
45115;DHT22;30877;43.706;10.780;2024-03-17T06:15:43;12.40;96.70
45115;DHT22;30877;43.706;10.780;2024-03-17T06:18:12;12.40;96.70
45115;DHT22;30877;43.706;10.780;2024-03-17T06:20:41;12.40;96.70
45115;DHT22;30877;43.706;10.780;2024-03-17T06:23:11;12.40;96.70
45115;DHT22;30877;43.706;10.780;2024-03-17T06:25:40;12.40;96.70
45115;DHT22;30877;43.706;10.780;2024-03-17T06:28:14;12.40;96.70
45115;DHT22;30877;43.706;10.780;2024-03-17T06:30:45;12.40;96.70
45115;DHT22;30877;43.706;10.780;2024-03-17T06:33:17;12.40;96.70
45115;DHT22;30877;43.706;10.780;2024-03-17T06:35:48;12.30;96.70
45115;DHT22;30877;43.706;10.780;2024-03-17T06:38:16;12.40;96.70
45115;DHT22;30877;43.706;10.780;2024-03-17T06:40:48;12.40;96.70
45115;DHT22;30877;43.706;10.780;2024-03-17T06:43:20;12.40;96.70
45115;DHT22;30877;43.706;10.780;2024-03-17T06:45:59;12.50;96.70
45115;DHT22;30877;43.706;10.780;2024-03-17T06:48:28;12.50;96.70
45115;DHT22;30877;43.706;10.780;2024-03-17T06:50:57;12.50;96.70
45115;DHT22;30877;43.706;10.780;2024-03-17T06:53:28;12.50;96.70
45115;DHT22;30877;43.706;10.780;2024-03-17T06:55:58;12.60;96.70
45115;DHT22;30877;43.706;10.780;2024-03-17T06:58:27;12.60;96.70
45115;DHT22;30877;43.706;10.780;2024-03-17T07:00:57;12.60;96.70
45115;DHT22;30877;43.706;10.780;2024-03-17T07:03:30;12.70;96.70
45115;DHT22;30877;43.706;10.780;2024-03-17T07:06:00;12.70;96.70
45115;DHT22;30877;43.706;10.780;2024-03-17T07:08:33;12.70;96.70
45115;DHT22;30877;43.706;10.780;2024-03-17T07:11:01;12.70;96.70
45115;DHT22;30877;43.706;10.780;2024-03-17T07:13:35;12.80;96.70
45115;DHT22;30877;43.706;10.780;2024-03-17T07:16:05;12.80;96.70
45115;DHT22;30877;43.706;10.780;2024-03-17T07:18:34;12.90;96.70
45115;DHT22;30877;43.706;10.780;2024-03-17T07:21:03;12.90;96.70
45115;DHT22;30877;43.706;10.780;2024-03-17T07:23:37;13.00;96.70
45115;DHT22;30877;43.706;10.780;2024-03-17T07:26:05;13.00;96.70
45115;DHT22;30877;43.706;10.780;2024-03-17T07:28:33;13.00;96.70
45115;DHT22;30877;43.706;10.780;2024-03-17T07:31:00;13.00;96.70
45115;DHT22;30877;43.706;10.780;2024-03-17T07:33:30;13.10;96.70
45115;DHT22;30877;43.706;10.780;2024-03-17T07:35:58;13.20;96.70
45115;DHT22;30877;43.706;10.780;2024-03-17T07:38:32;13.20;96.70
45115;DHT22;30877;43.706;10.780;2024-03-17T07:41:04;13.20;96.70
45115;DHT22;30877;43.706;10.780;2024-03-17T07:43:34;13.30;96.70
45115;DHT22;30877;43.706;10.780;2024-03-17T07:46:03;13.30;96.70
45115;DHT22;30877;43.706;10.780;2024-03-17T07:48:35;13.40;96.70
45115;DHT22;30877;43.706;10.780;2024-03-17T07:51:06;13.40;96.70
45115;DHT22;30877;43.706;10.780;2024-03-17T07:53:34;13.50;96.70
45115;DHT22;30877;43.706;10.780;2024-03-17T07:56:05;13.50;96.70
45115;DHT22;30877;43.706;10.780;2024-03-17T07:58:34;13.50;96.70
45115;DHT22;30877;43.706;10.780;2024-03-17T08:01:04;13.40;96.70
45115;DHT22;30877;43.706;10.780;2024-03-17T08:03:35;13.40;96.70
45115;DHT22;30877;43.706;10.780;2024-03-17T08:06:06;13.40;96.70
45115;DHT22;30877;43.706;10.780;2024-03-17T08:08:35;13.40;96.70
45115;DHT22;30877;43.706;10.780;2024-03-17T08:11:03;13.40;96.70
45115;DHT22;30877;43.706;10.780;2024-03-17T08:13:33;13.50;96.70
45115;DHT22;30877;43.706;10.780;2024-03-17T08:16:06;13.50;96.70
45115;DHT22;30877;43.706;10.780;2024-03-17T08:18:37;13.60;96.70
45115;DHT22;30877;43.706;10.780;2024-03-17T08:21:05;13.60;96.70
45115;DHT22;30877;43.706;10.780;2024-03-17T08:23:33;13.60;96.70
45115;DHT22;30877;43.706;10.780;2024-03-17T08:26:05;13.60;96.70
45115;DHT22;30877;43.706;10.780;2024-03-17T08:28:34;13.70;96.70
45115;DHT22;30877;43.706;10.780;2024-03-17T08:31:04;13.70;96.70
45115;DHT22;30877;43.706;10.780;2024-03-17T08:33:32;13.70;96.70
45115;DHT22;30877;43.706;10.780;2024-03-17T08:36:03;13.80;96.70
45115;DHT22;30877;43.706;10.780;2024-03-17T08:38:32;13.80;96.70
45115;DHT22;30877;43.706;10.780;2024-03-17T08:41:03;13.70;96.70
45115;DHT22;30877;43.706;10.780;2024-03-17T08:43:31;13.70;96.70
45115;DHT22;30877;43.706;10.780;2024-03-17T08:46:01;13.80;96.70
45115;DHT22;30877;43.706;10.780;2024-03-17T08:48:32;13.80;96.70
45115;DHT22;30877;43.706;10.780;2024-03-17T08:51:02;13.90;96.70
45115;DHT22;30877;43.706;10.780;2024-03-17T08:53:30;13.90;96.70
45115;DHT22;30877;43.706;10.780;2024-03-17T08:56:02;13.90;96.70
45115;DHT22;30877;43.706;10.780;2024-03-17T08:58:30;13.90;96.70
45115;DHT22;30877;43.706;10.780;2024-03-17T09:01:02;13.90;96.70
45115;DHT22;30877;43.706;10.780;2024-03-17T09:03:30;14.00;96.70
45115;DHT22;30877;43.706;10.780;2024-03-17T09:05:57;14.00;96.70
45115;DHT22;30877;43.706;10.780;2024-03-17T09:08:27;14.00;96.70
45115;DHT22;30877;43.706;10.780;2024-03-17T09:10:55;14.10;96.70
45115;DHT22;30877;43.706;10.780;2024-03-17T09:13:25;14.10;96.70
45115;DHT22;30877;43.706;10.780;2024-03-17T09:15:55;14.20;96.70
45115;DHT22;30877;43.706;10.780;2024-03-17T09:18:27;14.20;96.70
45115;DHT22;30877;43.706;10.780;2024-03-17T09:20:57;14.20;96.70
45115;DHT22;30877;43.706;10.780;2024-03-17T09:23:26;14.20;96.70
45115;DHT22;30877;43.706;10.780;2024-03-17T09:25:58;14.20;96.70
45115;DHT22;30877;43.706;10.780;2024-03-17T09:28:26;14.10;96.70
45115;DHT22;30877;43.706;10.780;2024-03-17T09:30:53;14.10;96.70
45115;DHT22;30877;43.706;10.780;2024-03-17T09:33:24;14.20;96.70
45115;DHT22;30877;43.706;10.780;2024-03-17T09:35:55;14.20;96.70
45115;DHT22;30877;43.706;10.780;2024-03-17T09:38:26;14.30;96.70
45115;DHT22;30877;43.706;10.780;2024-03-17T09:40:54;14.30;96.70
45115;DHT22;30877;43.706;10.780;2024-03-17T09:43:25;14.40;96.70
45115;DHT22;30877;43.706;10.780;2024-03-17T09:45:53;14.50;96.70
45115;DHT22;30877;43.706;10.780;2024-03-17T09:48:25;14.60;96.70
45115;DHT22;30877;43.706;10.780;2024-03-17T09:50:54;14.60;96.70
45115;DHT22;30877;43.706;10.780;2024-03-17T09:53:24;14.60;96.70
45115;DHT22;30877;43.706;10.780;2024-03-17T09:55:57;14.60;96.70
45115;DHT22;30877;43.706;10.780;2024-03-17T09:58:25;14.60;96.70
45115;DHT22;30877;43.706;10.780;2024-03-17T10:00:53;14.60;96.70
45115;DHT22;30877;43.706;10.780;2024-03-17T10:03:40;14.70;96.70
45115;DHT22;30877;43.706;10.780;2024-03-17T10:06:09;14.70;96.70
45115;DHT22;30877;43.706;10.780;2024-03-17T10:08:44;14.80;96.70
45115;DHT22;30877;43.706;10.780;2024-03-17T10:11:17;14.90;96.70
45115;DHT22;30877;43.706;10.780;2024-03-17T10:13:46;14.90;96.70
45115;DHT22;30877;43.706;10.780;2024-03-17T10:16:24;14.90;96.70
45115;DHT22;30877;43.706;10.780;2024-03-17T10:19:07;14.90;96.70
45115;DHT22;30877;43.706;10.780;2024-03-17T10:21:37;15.00;96.70
45115;DHT22;30877;43.706;10.780;2024-03-17T10:24:06;15.00;96.70
45115;DHT22;30877;43.706;10.780;2024-03-17T10:26:46;15.00;96.70
45115;DHT22;30877;43.706;10.780;2024-03-17T10:29:24;15.00;96.70
45115;DHT22;30877;43.706;10.780;2024-03-17T10:31:54;15.10;96.70
45115;DHT22;30877;43.706;10.780;2024-03-17T10:34:23;15.10;96.70
45115;DHT22;30877;43.706;10.780;2024-03-17T10:37:08;15.10;96.70
45115;DHT22;30877;43.706;10.780;2024-03-17T10:39:42;15.20;96.70
45115;DHT22;30877;43.706;10.780;2024-03-17T10:42:13;15.30;96.70
45115;DHT22;30877;43.706;10.780;2024-03-17T10:44:42;15.30;96.70
45115;DHT22;30877;43.706;10.780;2024-03-17T10:47:20;15.30;96.70
45115;DHT22;30877;43.706;10.780;2024-03-17T10:49:50;15.30;96.70
45115;DHT22;30877;43.706;10.780;2024-03-17T10:52:20;15.40;96.70
45115;DHT22;30877;43.706;10.780;2024-03-17T10:54:51;15.50;96.70
45115;DHT22;30877;43.706;10.780;2024-03-17T10:57:32;15.50;96.70
45115;DHT22;30877;43.706;10.780;2024-03-17T11:00:05;15.60;96.70
45115;DHT22;30877;43.706;10.780;2024-03-17T11:02:36;15.70;96.70
45115;DHT22;30877;43.706;10.780;2024-03-17T11:05:10;15.70;96.70
45115;DHT22;30877;43.706;10.780;2024-03-17T11:07:40;15.80;96.70
45115;DHT22;30877;43.706;10.780;2024-03-17T11:10:16;15.80;96.70
45115;DHT22;30877;43.706;10.780;2024-03-17T11:12:49;15.80;96.70
45115;DHT22;30877;43.706;10.780;2024-03-17T11:15:39;15.90;96.70
45115;DHT22;30877;43.706;10.780;2024-03-17T11:18:39;16.10;96.70
45115;DHT22;30877;43.706;10.780;2024-03-17T11:21:19;16.10;96.70
45115;DHT22;30877;43.706;10.780;2024-03-17T11:24:01;16.10;96.70
45115;DHT22;30877;43.706;10.780;2024-03-17T11:26:31;16.20;96.70
45115;DHT22;30877;43.706;10.780;2024-03-17T11:29:02;16.20;96.70
45115;DHT22;30877;43.706;10.780;2024-03-17T11:31:41;16.20;96.70
45115;DHT22;30877;43.706;10.780;2024-03-17T11:34:28;16.30;96.70
45115;DHT22;30877;43.706;10.780;2024-03-17T11:36:57;16.40;96.70
45115;DHT22;30877;43.706;10.780;2024-03-17T11:39:48;16.50;96.70
45115;DHT22;30877;43.706;10.780;2024-03-17T11:42:27;16.40;96.70
45115;DHT22;30877;43.706;10.780;2024-03-17T11:45:02;16.60;96.70
45115;DHT22;30877;43.706;10.780;2024-03-17T11:47:37;16.70;96.70
45115;DHT22;30877;43.706;10.780;2024-03-17T11:50:08;17.00;96.70
45115;DHT22;30877;43.706;10.780;2024-03-17T11:52:37;17.10;96.70
45115;DHT22;30877;43.706;10.780;2024-03-17T11:55:16;17.00;96.70
45115;DHT22;30877;43.706;10.780;2024-03-17T11:57:44;17.00;96.70
45115;DHT22;30877;43.706;10.780;2024-03-17T12:00:23;17.00;96.70
45115;DHT22;30877;43.706;10.780;2024-03-17T12:02:52;17.00;96.70
45115;DHT22;30877;43.706;10.780;2024-03-17T12:05:20;17.00;96.70
45115;DHT22;30877;43.706;10.780;2024-03-17T12:07:48;17.00;96.70
45115;DHT22;30877;43.706;10.780;2024-03-17T12:10:16;17.00;96.70
45115;DHT22;30877;43.706;10.780;2024-03-17T12:12:47;17.10;96.70
45115;DHT22;30877;43.706;10.780;2024-03-17T12:15:17;17.10;96.70
45115;DHT22;30877;43.706;10.780;2024-03-17T12:17:55;17.20;96.70
45115;DHT22;30877;43.706;10.780;2024-03-17T12:20:26;17.20;96.70
45115;DHT22;30877;43.706;10.780;2024-03-17T12:22:55;17.30;96.70
45115;DHT22;30877;43.706;10.780;2024-03-17T12:25:24;17.30;96.70
45115;DHT22;30877;43.706;10.780;2024-03-17T12:27:55;17.40;96.70
45115;DHT22;30877;43.706;10.780;2024-03-17T12:30:22;17.50;96.70
45115;DHT22;30877;43.706;10.780;2024-03-17T12:32:50;17.40;96.70
45115;DHT22;30877;43.706;10.780;2024-03-17T12:35:21;17.60;96.70
45115;DHT22;30877;43.706;10.780;2024-03-17T12:37:49;17.70;96.70
45115;DHT22;30877;43.706;10.780;2024-03-17T12:40:21;17.80;96.70
45115;DHT22;30877;43.706;10.780;2024-03-17T12:42:50;17.80;96.70
45115;DHT22;30877;43.706;10.780;2024-03-17T12:45:20;17.80;96.70
45115;DHT22;30877;43.706;10.780;2024-03-17T12:47:49;17.90;96.70
45115;DHT22;30877;43.706;10.780;2024-03-17T12:50:18;18.00;96.70
45115;DHT22;30877;43.706;10.780;2024-03-17T12:52:54;18.10;96.70
45115;DHT22;30877;43.706;10.780;2024-03-17T12:55:25;18.10;96.70
45115;DHT22;30877;43.706;10.780;2024-03-17T12:58:11;18.10;96.70
45115;DHT22;30877;43.706;10.780;2024-03-17T13:01:00;18.00;96.70
45115;DHT22;30877;43.706;10.780;2024-03-17T13:03:30;17.90;96.70
45115;DHT22;30877;43.706;10.780;2024-03-17T13:06:01;17.90;96.70
45115;DHT22;30877;43.706;10.780;2024-03-17T13:08:36;17.80;96.70
45115;DHT22;30877;43.706;10.780;2024-03-17T13:11:08;17.70;96.70
45115;DHT22;30877;43.706;10.780;2024-03-17T13:13:36;17.60;96.70
45115;DHT22;30877;43.706;10.780;2024-03-17T13:16:04;17.60;96.70
45115;DHT22;30877;43.706;10.780;2024-03-17T13:18:33;17.70;96.70
45115;DHT22;30877;43.706;10.780;2024-03-17T13:21:01;17.60;96.70
45115;DHT22;30877;43.706;10.780;2024-03-17T13:23:30;17.60;96.70
45115;DHT22;30877;43.706;10.780;2024-03-17T13:26:01;17.60;96.70
45115;DHT22;30877;43.706;10.780;2024-03-17T13:28:28;17.70;96.70
45115;DHT22;30877;43.706;10.780;2024-03-17T13:31:00;17.80;96.70
45115;DHT22;30877;43.706;10.780;2024-03-17T13:33:30;17.80;96.70
45115;DHT22;30877;43.706;10.780;2024-03-17T13:35:58;17.90;96.70
45115;DHT22;30877;43.706;10.780;2024-03-17T13:38:26;18.00;96.70
45115;DHT22;30877;43.706;10.780;2024-03-17T13:40:56;18.00;96.70
45115;DHT22;30877;43.706;10.780;2024-03-17T13:43:25;18.00;96.70
45115;DHT22;30877;43.706;10.780;2024-03-17T13:45:53;18.10;96.70
45115;DHT22;30877;43.706;10.780;2024-03-17T13:48:21;18.20;96.70
45115;DHT22;30877;43.706;10.780;2024-03-17T13:50:48;18.30;96.70
45115;DHT22;30877;43.706;10.780;2024-03-17T13:53:16;18.30;96.70
45115;DHT22;30877;43.706;10.780;2024-03-17T13:55:46;18.40;96.70
45115;DHT22;30877;43.706;10.780;2024-03-17T13:58:16;18.40;96.70
45115;DHT22;30877;43.706;10.780;2024-03-17T14:00:47;18.40;96.70
45115;DHT22;30877;43.706;10.780;2024-03-17T14:03:14;18.40;96.70
45115;DHT22;30877;43.706;10.780;2024-03-17T14:05:44;18.30;96.70
45115;DHT22;30877;43.706;10.780;2024-03-17T14:08:13;18.20;96.70
45115;DHT22;30877;43.706;10.780;2024-03-17T14:10:42;18.20;96.70
45115;DHT22;30877;43.706;10.780;2024-03-17T14:13:13;18.10;96.70
45115;DHT22;30877;43.706;10.780;2024-03-17T14:15:43;18.10;96.70
45115;DHT22;30877;43.706;10.780;2024-03-17T14:18:14;18.10;96.70
45115;DHT22;30877;43.706;10.780;2024-03-17T14:20:42;18.00;96.70
45115;DHT22;30877;43.706;10.780;2024-03-17T14:23:10;18.00;96.70
45115;DHT22;30877;43.706;10.780;2024-03-17T14:25:39;18.10;96.70
45115;DHT22;30877;43.706;10.780;2024-03-17T14:28:08;18.10;96.70
45115;DHT22;30877;43.706;10.780;2024-03-17T14:30:36;18.20;96.70
45115;DHT22;30877;43.706;10.780;2024-03-17T14:33:04;18.20;96.70
45115;DHT22;30877;43.706;10.780;2024-03-17T14:35:34;18.20;96.70
45115;DHT22;30877;43.706;10.780;2024-03-17T14:38:05;18.30;96.70
45115;DHT22;30877;43.706;10.780;2024-03-17T14:40:36;18.30;96.70
45115;DHT22;30877;43.706;10.780;2024-03-17T14:43:04;18.30;96.70
45115;DHT22;30877;43.706;10.780;2024-03-17T14:45:32;18.20;96.70
45115;DHT22;30877;43.706;10.780;2024-03-17T14:48:01;18.20;96.70
45115;DHT22;30877;43.706;10.780;2024-03-17T14:50:30;18.30;96.70
45115;DHT22;30877;43.706;10.780;2024-03-17T14:53:01;18.50;96.70
45115;DHT22;30877;43.706;10.780;2024-03-17T14:55:30;18.50;96.70
45115;DHT22;30877;43.706;10.780;2024-03-17T14:57:59;18.60;96.70
45115;DHT22;30877;43.706;10.780;2024-03-17T15:00:32;18.70;96.70
45115;DHT22;30877;43.706;10.780;2024-03-17T15:03:00;18.90;96.70
45115;DHT22;30877;43.706;10.780;2024-03-17T15:05:29;18.80;96.70
45115;DHT22;30877;43.706;10.780;2024-03-17T15:08:01;18.90;96.70
45115;DHT22;30877;43.706;10.780;2024-03-17T15:10:31;18.80;96.70
45115;DHT22;30877;43.706;10.780;2024-03-17T15:12:58;18.70;96.70
45115;DHT22;30877;43.706;10.780;2024-03-17T15:15:26;18.60;96.70
45115;DHT22;30877;43.706;10.780;2024-03-17T15:17:54;18.50;96.70
45115;DHT22;30877;43.706;10.780;2024-03-17T15:20:21;18.40;96.70
45115;DHT22;30877;43.706;10.780;2024-03-17T15:22:51;18.40;96.70
45115;DHT22;30877;43.706;10.780;2024-03-17T15:25:23;18.70;96.70
45115;DHT22;30877;43.706;10.780;2024-03-17T15:27:52;19.00;96.70
45115;DHT22;30877;43.706;10.780;2024-03-17T15:30:22;19.30;96.70
45115;DHT22;30877;43.706;10.780;2024-03-17T15:32:52;19.50;96.70